sensor_id;sensor_type;location;lat;lon;timestamp;P1;durP1;ratioP1;P2;durP2;ratioP2
38591;SDS011;24356;48.460;11.450;2022-10-16T00:01:59;3.92;;;1.70;;
38591;SDS011;24356;48.460;11.450;2022-10-16T00:04:25;7.38;;;1.63;;
38591;SDS011;24356;48.460;11.450;2022-10-16T00:06:50;2.97;;;1.60;;
38591;SDS011;24356;48.460;11.450;2022-10-16T00:09:16;6.22;;;1.70;;
38591;SDS011;24356;48.460;11.450;2022-10-16T00:11:42;5.45;;;1.70;;
38591;SDS011;24356;48.460;11.450;2022-10-16T00:14:09;4.65;;;1.73;;
38591;SDS011;24356;48.460;11.450;2022-10-16T00:16:38;8.00;;;1.70;;
38591;SDS011;24356;48.460;11.450;2022-10-16T00:19:05;5.95;;;1.75;;
38591;SDS011;24356;48.460;11.450;2022-10-16T00:21:32;6.20;;;1.80;;
38591;SDS011;24356;48.460;11.450;2022-10-16T00:23:59;7.80;;;2.08;;
38591;SDS011;24356;48.460;11.450;2022-10-16T00:26:31;3.63;;;1.58;;
38591;SDS011;24356;48.460;11.450;2022-10-16T00:28:58;5.53;;;1.60;;
38591;SDS011;24356;48.460;11.450;2022-10-16T00:31:25;9.35;;;2.13;;
38591;SDS011;24356;48.460;11.450;2022-10-16T00:33:51;4.40;;;1.73;;
38591;SDS011;24356;48.460;11.450;2022-10-16T00:36:18;5.40;;;1.67;;
38591;SDS011;24356;48.460;11.450;2022-10-16T00:38:46;6.95;;;1.80;;
38591;SDS011;24356;48.460;11.450;2022-10-16T00:41:16;5.57;;;1.70;;
38591;SDS011;24356;48.460;11.450;2022-10-16T00:43:43;3.60;;;1.85;;
38591;SDS011;24356;48.460;11.450;2022-10-16T00:48:42;3.67;;;1.80;;
38591;SDS011;24356;48.460;11.450;2022-10-16T00:51:13;5.60;;;1.80;;
38591;SDS011;24356;48.460;11.450;2022-10-16T00:53:39;4.82;;;1.90;;
38591;SDS011;24356;48.460;11.450;2022-10-16T00:56:05;5.72;;;1.80;;
38591;SDS011;24356;48.460;11.450;2022-10-16T00:58:32;3.70;;;1.83;;
38591;SDS011;24356;48.460;11.450;2022-10-16T01:00:58;3.85;;;1.63;;
38591;SDS011;24356;48.460;11.450;2022-10-16T01:03:26;1.85;;;1.50;;
38591;SDS011;24356;48.460;11.450;2022-10-16T01:08:42;3.50;;;1.80;;
38591;SDS011;24356;48.460;11.450;2022-10-16T01:13:55;2.78;;;1.65;;
38591;SDS011;24356;48.460;11.450;2022-10-16T01:16:31;2.88;;;1.88;;
38591;SDS011;24356;48.460;11.450;2022-10-16T01:21:48;4.60;;;2.00;;
38591;SDS011;24356;48.460;11.450;2022-10-16T01:27:15;4.13;;;1.83;;
38591;SDS011;24356;48.460;11.450;2022-10-16T01:34:50;4.32;;;1.90;;
38591;SDS011;24356;48.460;11.450;2022-10-16T01:40:41;9.52;;;2.13;;
38591;SDS011;24356;48.460;11.450;2022-10-16T01:43:13;3.17;;;1.90;;
38591;SDS011;24356;48.460;11.450;2022-10-16T01:45:47;5.30;;;2.00;;
38591;SDS011;24356;48.460;11.450;2022-10-16T01:48:14;4.68;;;1.90;;
38591;SDS011;24356;48.460;11.450;2022-10-16T01:50:43;4.05;;;1.80;;
38591;SDS011;24356;48.460;11.450;2022-10-16T01:53:13;2.50;;;1.80;;
38591;SDS011;24356;48.460;11.450;2022-10-16T01:55:41;4.63;;;1.75;;
38591;SDS011;24356;48.460;11.450;2022-10-16T01:58:11;2.60;;;1.60;;
38591;SDS011;24356;48.460;11.450;2022-10-16T02:00:39;4.07;;;1.70;;
38591;SDS011;24356;48.460;11.450;2022-10-16T02:03:07;2.08;;;1.60;;
38591;SDS011;24356;48.460;11.450;2022-10-16T02:05:37;6.97;;;2.20;;
38591;SDS011;24356;48.460;11.450;2022-10-16T02:08:05;5.70;;;1.90;;
38591;SDS011;24356;48.460;11.450;2022-10-16T02:10:30;6.05;;;2.05;;
38591;SDS011;24356;48.460;11.450;2022-10-16T02:13:05;6.65;;;1.77;;
38591;SDS011;24356;48.460;11.450;2022-10-16T02:15:35;2.50;;;1.80;;
38591;SDS011;24356;48.460;11.450;2022-10-16T02:18:02;3.35;;;1.70;;
38591;SDS011;24356;48.460;11.450;2022-10-16T02:20:34;5.13;;;1.60;;
38591;SDS011;24356;48.460;11.450;2022-10-16T02:23:05;2.80;;;1.90;;
38591;SDS011;24356;48.460;11.450;2022-10-16T02:25:35;7.22;;;1.80;;
38591;SDS011;24356;48.460;11.450;2022-10-16T02:28:13;6.22;;;1.88;;
38591;SDS011;24356;48.460;11.450;2022-10-16T02:30:56;2.08;;;1.60;;
38591;SDS011;24356;48.460;11.450;2022-10-16T02:33:25;4.57;;;1.90;;
38591;SDS011;24356;48.460;11.450;2022-10-16T02:35:54;2.90;;;1.70;;
38591;SDS011;24356;48.460;11.450;2022-10-16T02:38:22;5.55;;;1.67;;
38591;SDS011;24356;48.460;11.450;2022-10-16T02:40:49;5.13;;;1.95;;
38591;SDS011;24356;48.460;11.450;2022-10-16T02:43:15;4.13;;;1.80;;
38591;SDS011;24356;48.460;11.450;2022-10-16T02:45:41;5.35;;;1.55;;
38591;SDS011;24356;48.460;11.450;2022-10-16T02:48:07;4.53;;;1.70;;
38591;SDS011;24356;48.460;11.450;2022-10-16T02:50:33;2.67;;;1.48;;
38591;SDS011;24356;48.460;11.450;2022-10-16T02:52:59;2.28;;;1.70;;
38591;SDS011;24356;48.460;11.450;2022-10-16T02:55:25;3.33;;;1.45;;
38591;SDS011;24356;48.460;11.450;2022-10-16T02:57:52;2.63;;;1.52;;
38591;SDS011;24356;48.460;11.450;2022-10-16T03:00:18;9.85;;;2.53;;
38591;SDS011;24356;48.460;11.450;2022-10-16T03:02:44;6.07;;;1.90;;
38591;SDS011;24356;48.460;11.450;2022-10-16T03:05:11;2.38;;;1.80;;
38591;SDS011;24356;48.460;11.450;2022-10-16T03:07:37;3.55;;;1.60;;
38591;SDS011;24356;48.460;11.450;2022-10-16T03:10:02;3.13;;;1.75;;
38591;SDS011;24356;48.460;11.450;2022-10-16T03:12:28;3.03;;;1.60;;
38591;SDS011;24356;48.460;11.450;2022-10-16T03:14:57;2.75;;;1.67;;
38591;SDS011;24356;48.460;11.450;2022-10-16T03:17:23;5.00;;;1.70;;
38591;SDS011;24356;48.460;11.450;2022-10-16T03:19:49;6.50;;;1.67;;
38591;SDS011;24356;48.460;11.450;2022-10-16T03:22:15;2.90;;;1.80;;
38591;SDS011;24356;48.460;11.450;2022-10-16T03:24:41;6.38;;;1.83;;
38591;SDS011;24356;48.460;11.450;2022-10-16T03:27:06;3.95;;;1.75;;
38591;SDS011;24356;48.460;11.450;2022-10-16T03:29:32;7.72;;;2.05;;
38591;SDS011;24356;48.460;11.450;2022-10-16T03:31:59;3.88;;;2.03;;
38591;SDS011;24356;48.460;11.450;2022-10-16T03:34:25;3.88;;;2.08;;
38591;SDS011;24356;48.460;11.450;2022-10-16T03:36:51;2.05;;;1.83;;
38591;SDS011;24356;48.460;11.450;2022-10-16T03:39:17;3.90;;;1.92;;
38591;SDS011;24356;48.460;11.450;2022-10-16T03:41:43;5.32;;;1.92;;
38591;SDS011;24356;48.460;11.450;2022-10-16T03:44:08;5.78;;;2.10;;
38591;SDS011;24356;48.460;11.450;2022-10-16T03:46:34;6.47;;;2.17;;
38591;SDS011;24356;48.460;11.450;2022-10-16T03:49:00;5.15;;;1.73;;
38591;SDS011;24356;48.460;11.450;2022-10-16T03:51:25;7.13;;;2.15;;
38591;SDS011;24356;48.460;11.450;2022-10-16T03:53:51;2.65;;;1.80;;
38591;SDS011;24356;48.460;11.450;2022-10-16T03:56:16;4.30;;;2.33;;
38591;SDS011;24356;48.460;11.450;2022-10-16T03:58:42;4.80;;;1.98;;
38591;SDS011;24356;48.460;11.450;2022-10-16T04:01:08;5.35;;;2.10;;
38591;SDS011;24356;48.460;11.450;2022-10-16T04:03:33;2.90;;;1.55;;
38591;SDS011;24356;48.460;11.450;2022-10-16T04:05:59;4.55;;;1.85;;
38591;SDS011;24356;48.460;11.450;2022-10-16T04:08:25;9.02;;;2.10;;
38591;SDS011;24356;48.460;11.450;2022-10-16T04:10:50;6.15;;;1.65;;
38591;SDS011;24356;48.460;11.450;2022-10-16T04:13:16;6.15;;;1.70;;
38591;SDS011;24356;48.460;11.450;2022-10-16T04:15:42;2.25;;;1.83;;
38591;SDS011;24356;48.460;11.450;2022-10-16T04:18:09;5.25;;;2.08;;
38591;SDS011;24356;48.460;11.450;2022-10-16T04:20:34;9.88;;;1.92;;
38591;SDS011;24356;48.460;11.450;2022-10-16T04:23:00;4.95;;;2.40;;
38591;SDS011;24356;48.460;11.450;2022-10-16T04:25:26;3.35;;;1.90;;
38591;SDS011;24356;48.460;11.450;2022-10-16T04:27:55;6.20;;;1.88;;
38591;SDS011;24356;48.460;11.450;2022-10-16T04:30:21;3.22;;;2.00;;
38591;SDS011;24356;48.460;11.450;2022-10-16T04:32:51;1.88;;;1.50;;
38591;SDS011;24356;48.460;11.450;2022-10-16T04:35:18;6.25;;;1.98;;
38591;SDS011;24356;48.460;11.450;2022-10-16T04:37:44;8.68;;;2.00;;
38591;SDS011;24356;48.460;11.450;2022-10-16T04:40:10;3.58;;;2.10;;
38591;SDS011;24356;48.460;11.450;2022-10-16T04:42:36;5.63;;;2.17;;
38591;SDS011;24356;48.460;11.450;2022-10-16T04:45:02;3.17;;;2.08;;
38591;SDS011;24356;48.460;11.450;2022-10-16T04:47:28;6.43;;;2.25;;
38591;SDS011;24356;48.460;11.450;2022-10-16T04:49:54;6.15;;;2.30;;
38591;SDS011;24356;48.460;11.450;2022-10-16T04:52:20;3.92;;;2.10;;
38591;SDS011;24356;48.460;11.450;2022-10-16T04:54:46;4.00;;;2.00;;
38591;SDS011;24356;48.460;11.450;2022-10-16T04:57:12;1.85;;;1.50;;
38591;SDS011;24356;48.460;11.450;2022-10-16T04:59:38;2.35;;;2.00;;
38591;SDS011;24356;48.460;11.450;2022-10-16T05:02:04;2.47;;;1.90;;
38591;SDS011;24356;48.460;11.450;2022-10-16T05:04:29;2.60;;;1.63;;
38591;SDS011;24356;48.460;11.450;2022-10-16T05:06:55;4.47;;;1.90;;
38591;SDS011;24356;48.460;11.450;2022-10-16T05:09:20;2.83;;;2.00;;
38591;SDS011;24356;48.460;11.450;2022-10-16T05:11:46;2.70;;;1.80;;
38591;SDS011;24356;48.460;11.450;2022-10-16T05:14:12;4.47;;;2.00;;
38591;SDS011;24356;48.460;11.450;2022-10-16T05:16:37;2.85;;;1.65;;
38591;SDS011;24356;48.460;11.450;2022-10-16T05:19:03;4.70;;;2.05;;
38591;SDS011;24356;48.460;11.450;2022-10-16T05:21:29;2.47;;;1.92;;
38591;SDS011;24356;48.460;11.450;2022-10-16T05:23:54;2.13;;;1.75;;
38591;SDS011;24356;48.460;11.450;2022-10-16T05:26:20;4.75;;;1.90;;
38591;SDS011;24356;48.460;11.450;2022-10-16T05:28:46;5.53;;;1.80;;
38591;SDS011;24356;48.460;11.450;2022-10-16T05:31:11;1.85;;;1.60;;
38591;SDS011;24356;48.460;11.450;2022-10-16T05:33:37;3.35;;;1.67;;
38591;SDS011;24356;48.460;11.450;2022-10-16T05:36:04;8.85;;;2.08;;
38591;SDS011;24356;48.460;11.450;2022-10-16T05:38:32;3.10;;;1.25;;
38591;SDS011;24356;48.460;11.450;2022-10-16T05:41:02;4.80;;;1.75;;
38591;SDS011;24356;48.460;11.450;2022-10-16T05:43:29;4.32;;;1.75;;
38591;SDS011;24356;48.460;11.450;2022-10-16T05:48:25;5.25;;;1.92;;
38591;SDS011;24356;48.460;11.450;2022-10-16T05:51:01;4.45;;;2.38;;
38591;SDS011;24356;48.460;11.450;2022-10-16T05:53:31;3.50;;;2.15;;
38591;SDS011;24356;48.460;11.450;2022-10-16T05:55:58;4.63;;;2.13;;
38591;SDS011;24356;48.460;11.450;2022-10-16T05:58:24;4.15;;;2.25;;
38591;SDS011;24356;48.460;11.450;2022-10-16T06:00:54;5.60;;;2.20;;
38591;SDS011;24356;48.460;11.450;2022-10-16T06:03:21;6.15;;;2.15;;
38591;SDS011;24356;48.460;11.450;2022-10-16T06:05:46;7.30;;;2.25;;
38591;SDS011;24356;48.460;11.450;2022-10-16T06:08:12;3.60;;;2.35;;
38591;SDS011;24356;48.460;11.450;2022-10-16T06:10:38;4.15;;;2.10;;
38591;SDS011;24356;48.460;11.450;2022-10-16T06:13:04;7.38;;;2.22;;
38591;SDS011;24356;48.460;11.450;2022-10-16T06:15:29;2.60;;;1.90;;
38591;SDS011;24356;48.460;11.450;2022-10-16T06:17:55;2.05;;;1.73;;
38591;SDS011;24356;48.460;11.450;2022-10-16T06:20:20;2.45;;;2.10;;
38591;SDS011;24356;48.460;11.450;2022-10-16T06:22:46;2.30;;;1.60;;
38591;SDS011;24356;48.460;11.450;2022-10-16T06:25:12;4.65;;;1.95;;
38591;SDS011;24356;48.460;11.450;2022-10-16T06:27:40;2.80;;;1.80;;
38591;SDS011;24356;48.460;11.450;2022-10-16T06:30:06;2.63;;;2.00;;
38591;SDS011;24356;48.460;11.450;2022-10-16T06:32:32;5.90;;;2.13;;
38591;SDS011;24356;48.460;11.450;2022-10-16T06:34:58;2.15;;;1.95;;
38591;SDS011;24356;48.460;11.450;2022-10-16T06:37:24;5.97;;;2.00;;
38591;SDS011;24356;48.460;11.450;2022-10-16T06:39:50;3.78;;;2.50;;
38591;SDS011;24356;48.460;11.450;2022-10-16T06:42:17;7.75;;;2.50;;
38591;SDS011;24356;48.460;11.450;2022-10-16T06:44:43;5.30;;;2.00;;
38591;SDS011;24356;48.460;11.450;2022-10-16T06:47:09;4.63;;;2.40;;
38591;SDS011;24356;48.460;11.450;2022-10-16T06:49:35;4.40;;;2.42;;
38591;SDS011;24356;48.460;11.450;2022-10-16T06:52:00;2.30;;;1.80;;
38591;SDS011;24356;48.460;11.450;2022-10-16T06:54:27;4.35;;;2.30;;
38591;SDS011;24356;48.460;11.450;2022-10-16T06:56:53;4.47;;;1.98;;
38591;SDS011;24356;48.460;11.450;2022-10-16T06:59:19;6.63;;;2.10;;
38591;SDS011;24356;48.460;11.450;2022-10-16T07:01:45;4.55;;;2.40;;
38591;SDS011;24356;48.460;11.450;2022-10-16T07:04:11;4.18;;;2.35;;
38591;SDS011;24356;48.460;11.450;2022-10-16T07:06:37;4.93;;;2.40;;
38591;SDS011;24356;48.460;11.450;2022-10-16T07:09:05;9.48;;;4.45;;
38591;SDS011;24356;48.460;11.450;2022-10-16T07:11:32;7.28;;;5.10;;
38591;SDS011;24356;48.460;11.450;2022-10-16T07:13:58;6.50;;;4.55;;
38591;SDS011;24356;48.460;11.450;2022-10-16T07:16:28;6.70;;;3.80;;
38591;SDS011;24356;48.460;11.450;2022-10-16T07:18:59;9.35;;;3.80;;
38591;SDS011;24356;48.460;11.450;2022-10-16T07:21:27;6.18;;;3.38;;
38591;SDS011;24356;48.460;11.450;2022-10-16T07:23:55;5.38;;;3.45;;
38591;SDS011;24356;48.460;11.450;2022-10-16T07:26:23;6.05;;;2.40;;
38591;SDS011;24356;48.460;11.450;2022-10-16T07:28:51;8.63;;;2.80;;
38591;SDS011;24356;48.460;11.450;2022-10-16T07:31:19;3.35;;;2.47;;
38591;SDS011;24356;48.460;11.450;2022-10-16T07:33:45;6.32;;;2.55;;
38591;SDS011;24356;48.460;11.450;2022-10-16T07:36:13;2.75;;;2.22;;
38591;SDS011;24356;48.460;11.450;2022-10-16T07:38:41;4.47;;;2.58;;
38591;SDS011;24356;48.460;11.450;2022-10-16T07:41:07;4.60;;;2.40;;
38591;SDS011;24356;48.460;11.450;2022-10-16T07:43:39;3.75;;;2.70;;
38591;SDS011;24356;48.460;11.450;2022-10-16T07:46:05;5.20;;;2.25;;
38591;SDS011;24356;48.460;11.450;2022-10-16T07:48:31;4.93;;;2.65;;
38591;SDS011;24356;48.460;11.450;2022-10-16T07:50:59;6.63;;;2.38;;
38591;SDS011;24356;48.460;11.450;2022-10-16T07:53:30;3.35;;;2.55;;
38591;SDS011;24356;48.460;11.450;2022-10-16T07:55:57;4.43;;;2.20;;
38591;SDS011;24356;48.460;11.450;2022-10-16T07:58:23;3.78;;;2.28;;
38591;SDS011;24356;48.460;11.450;2022-10-16T08:00:49;3.10;;;2.35;;
38591;SDS011;24356;48.460;11.450;2022-10-16T08:03:14;6.43;;;2.53;;
38591;SDS011;24356;48.460;11.450;2022-10-16T08:05:40;6.20;;;2.67;;
38591;SDS011;24356;48.460;11.450;2022-10-16T08:08:06;4.38;;;2.50;;
38591;SDS011;24356;48.460;11.450;2022-10-16T08:10:31;7.50;;;2.58;;
38591;SDS011;24356;48.460;11.450;2022-10-16T08:12:57;6.55;;;2.60;;
38591;SDS011;24356;48.460;11.450;2022-10-16T08:15:23;4.88;;;2.10;;
38591;SDS011;24356;48.460;11.450;2022-10-16T08:17:56;6.82;;;2.30;;
38591;SDS011;24356;48.460;11.450;2022-10-16T08:20:27;5.97;;;2.80;;
38591;SDS011;24356;48.460;11.450;2022-10-16T08:22:53;4.05;;;2.00;;
38591;SDS011;24356;48.460;11.450;2022-10-16T08:25:20;2.60;;;2.03;;
38591;SDS011;24356;48.460;11.450;2022-10-16T08:27:47;2.20;;;1.75;;
38591;SDS011;24356;48.460;11.450;2022-10-16T08:30:14;5.60;;;1.65;;
38591;SDS011;24356;48.460;11.450;2022-10-16T08:32:41;5.35;;;1.70;;
38591;SDS011;24356;48.460;11.450;2022-10-16T08:35:07;3.88;;;1.90;;
38591;SDS011;24356;48.460;11.450;2022-10-16T08:37:34;3.35;;;1.77;;
38591;SDS011;24356;48.460;11.450;2022-10-16T08:40:00;2.42;;;1.63;;
38591;SDS011;24356;48.460;11.450;2022-10-16T08:43:03;2.38;;;1.70;;
38591;SDS011;24356;48.460;11.450;2022-10-16T08:50:43;3.65;;;1.60;;
38591;SDS011;24356;48.460;11.450;2022-10-16T08:56:17;2.17;;;1.50;;
38591;SDS011;24356;48.460;11.450;2022-10-16T08:58:43;2.55;;;1.58;;
38591;SDS011;24356;48.460;11.450;2022-10-16T09:01:17;1.50;;;1.33;;
38591;SDS011;24356;48.460;11.450;2022-10-16T09:06:32;4.68;;;1.60;;
38591;SDS011;24356;48.460;11.450;2022-10-16T09:09:18;1.38;;;1.27;;
38591;SDS011;24356;48.460;11.450;2022-10-16T09:17:04;2.55;;;1.90;;
38591;SDS011;24356;48.460;11.450;2022-10-16T09:19:39;3.35;;;1.50;;
38591;SDS011;24356;48.460;11.450;2022-10-16T09:22:14;5.05;;;1.40;;
38591;SDS011;24356;48.460;11.450;2022-10-16T09:24:41;2.20;;;1.58;;
38591;SDS011;24356;48.460;11.450;2022-10-16T09:27:14;3.38;;;1.67;;
38591;SDS011;24356;48.460;11.450;2022-10-16T09:29:40;3.17;;;1.48;;
38591;SDS011;24356;48.460;11.450;2022-10-16T09:32:12;2.10;;;1.60;;
38591;SDS011;24356;48.460;11.450;2022-10-16T09:34:43;4.97;;;1.50;;
38591;SDS011;24356;48.460;11.450;2022-10-16T09:37:13;1.92;;;1.52;;
38591;SDS011;24356;48.460;11.450;2022-10-16T09:39:44;6.43;;;1.80;;
38591;SDS011;24356;48.460;11.450;2022-10-16T09:42:20;5.28;;;1.67;;
38591;SDS011;24356;48.460;11.450;2022-10-16T09:44:47;17.67;;;1.95;;
38591;SDS011;24356;48.460;11.450;2022-10-16T09:47:28;4.80;;;1.50;;
38591;SDS011;24356;48.460;11.450;2022-10-16T09:49:59;9.13;;;1.70;;
38591;SDS011;24356;48.460;11.450;2022-10-16T09:52:29;4.00;;;1.50;;
38591;SDS011;24356;48.460;11.450;2022-10-16T09:55:00;1.50;;;1.30;;
38591;SDS011;24356;48.460;11.450;2022-10-16T09:57:37;3.97;;;1.30;;
38591;SDS011;24356;48.460;11.450;2022-10-16T10:00:15;1.27;;;1.17;;
38591;SDS011;24356;48.460;11.450;2022-10-16T10:02:42;4.50;;;1.60;;
38591;SDS011;24356;48.460;11.450;2022-10-16T10:05:20;3.70;;;1.33;;
38591;SDS011;24356;48.460;11.450;2022-10-16T10:07:53;1.38;;;1.27;;
38591;SDS011;24356;48.460;11.450;2022-10-16T10:10:32;3.33;;;1.33;;
38591;SDS011;24356;48.460;11.450;2022-10-16T10:12:59;4.80;;;1.35;;
38591;SDS011;24356;48.460;11.450;2022-10-16T10:15:25;3.00;;;1.23;;
38591;SDS011;24356;48.460;11.450;2022-10-16T10:17:55;2.30;;;1.20;;
38591;SDS011;24356;48.460;11.450;2022-10-16T10:23:20;5.07;;;1.05;;
38591;SDS011;24356;48.460;11.450;2022-10-16T10:25:53;2.67;;;1.30;;
38591;SDS011;24356;48.460;11.450;2022-10-16T10:31:06;1.92;;;1.08;;
38591;SDS011;24356;48.460;11.450;2022-10-16T10:33:58;1.48;;;1.20;;
38591;SDS011;24356;48.460;11.450;2022-10-16T10:36:53;2.55;;;1.20;;
38591;SDS011;24356;48.460;11.450;2022-10-16T10:39:51;2.85;;;1.23;;
38591;SDS011;24356;48.460;11.450;2022-10-16T10:45:44;2.33;;;1.20;;
38591;SDS011;24356;48.460;11.450;2022-10-16T10:59:25;2.35;;;0.82;;
38591;SDS011;24356;48.460;11.450;2022-10-16T11:05:24;1.10;;;0.80;;
38591;SDS011;24356;48.460;11.450;2022-10-16T11:08:00;1.13;;;0.80;;
38591;SDS011;24356;48.460;11.450;2022-10-16T11:10:30;1.00;;;0.90;;
38591;SDS011;24356;48.460;11.450;2022-10-16T11:13:27;1.90;;;0.80;;
38591;SDS011;24356;48.460;11.450;2022-10-16T11:15:59;2.20;;;0.60;;
38591;SDS011;24356;48.460;11.450;2022-10-16T11:18:41;1.95;;;0.80;;
38591;SDS011;24356;48.460;11.450;2022-10-16T11:21:25;3.13;;;0.57;;
38591;SDS011;24356;48.460;11.450;2022-10-16T11:24:01;1.48;;;0.65;;
38591;SDS011;24356;48.460;11.450;2022-10-16T11:26:44;0.70;;;0.63;;
38591;SDS011;24356;48.460;11.450;2022-10-16T11:29:25;1.75;;;0.70;;
38591;SDS011;24356;48.460;11.450;2022-10-16T11:31:55;2.65;;;0.70;;
38591;SDS011;24356;48.460;11.450;2022-10-16T11:37:08;1.25;;;0.70;;
38591;SDS011;24356;48.460;11.450;2022-10-16T11:39:37;0.98;;;0.75;;
38591;SDS011;24356;48.460;11.450;2022-10-16T11:42:10;1.35;;;0.80;;
38591;SDS011;24356;48.460;11.450;2022-10-16T11:47:35;2.67;;;0.60;;
38591;SDS011;24356;48.460;11.450;2022-10-16T11:53:16;0.70;;;0.60;;
38591;SDS011;24356;48.460;11.450;2022-10-16T11:55:48;0.93;;;0.70;;
38591;SDS011;24356;48.460;11.450;2022-10-16T12:00:45;1.38;;;0.73;;
38591;SDS011;24356;48.460;11.450;2022-10-16T12:06:46;1.25;;;0.60;;
38591;SDS011;24356;48.460;11.450;2022-10-16T12:09:15;1.60;;;0.70;;
38591;SDS011;24356;48.460;11.450;2022-10-16T12:11:49;3.20;;;0.80;;
38591;SDS011;24356;48.460;11.450;2022-10-16T12:16:56;2.25;;;0.70;;
38591;SDS011;24356;48.460;11.450;2022-10-16T12:19:28;2.42;;;0.77;;
38591;SDS011;24356;48.460;11.450;2022-10-16T12:21:56;0.70;;;0.52;;
38591;SDS011;24356;48.460;11.450;2022-10-16T12:26:52;3.25;;;0.82;;
38591;SDS011;24356;48.460;11.450;2022-10-16T12:32:26;1.33;;;0.80;;
38591;SDS011;24356;48.460;11.450;2022-10-16T12:34:58;2.33;;;0.77;;
38591;SDS011;24356;48.460;11.450;2022-10-16T12:37:32;0.65;;;0.60;;
38591;SDS011;24356;48.460;11.450;2022-10-16T12:40:10;1.17;;;0.70;;
38591;SDS011;24356;48.460;11.450;2022-10-16T12:42:51;3.63;;;0.90;;
38591;SDS011;24356;48.460;11.450;2022-10-16T12:47:57;0.75;;;0.60;;
38591;SDS011;24356;48.460;11.450;2022-10-16T12:52:59;1.25;;;0.60;;
38591;SDS011;24356;48.460;11.450;2022-10-16T12:55:26;1.27;;;0.80;;
38591;SDS011;24356;48.460;11.450;2022-10-16T13:01:07;1.70;;;1.00;;
38591;SDS011;24356;48.460;11.450;2022-10-16T13:03:55;2.13;;;1.10;;
38591;SDS011;24356;48.460;11.450;2022-10-16T13:06:33;2.00;;;0.90;;
38591;SDS011;24356;48.460;11.450;2022-10-16T13:20:26;1.23;;;0.82;;
38591;SDS011;24356;48.460;11.450;2022-10-16T13:29:02;2.33;;;0.70;;
38591;SDS011;24356;48.460;11.450;2022-10-16T13:31:29;2.40;;;0.95;;
38591;SDS011;24356;48.460;11.450;2022-10-16T13:33:57;3.22;;;0.90;;
38591;SDS011;24356;48.460;11.450;2022-10-16T13:39:12;3.08;;;0.80;;
38591;SDS011;24356;48.460;11.450;2022-10-16T13:41:39;0.93;;;0.77;;
38591;SDS011;24356;48.460;11.450;2022-10-16T13:44:17;0.57;;;0.57;;
38591;SDS011;24356;48.460;11.450;2022-10-16T13:46:45;3.83;;;0.70;;
38591;SDS011;24356;48.460;11.450;2022-10-16T13:49:12;2.25;;;0.55;;
38591;SDS011;24356;48.460;11.450;2022-10-16T13:51:40;1.45;;;0.70;;
38591;SDS011;24356;48.460;11.450;2022-10-16T13:54:07;0.77;;;0.63;;
38591;SDS011;24356;48.460;11.450;2022-10-16T13:56:36;2.50;;;0.55;;
38591;SDS011;24356;48.460;11.450;2022-10-16T13:59:05;1.20;;;0.80;;
38591;SDS011;24356;48.460;11.450;2022-10-16T14:01:46;1.50;;;0.80;;
38591;SDS011;24356;48.460;11.450;2022-10-16T14:04:12;2.15;;;0.95;;
38591;SDS011;24356;48.460;11.450;2022-10-16T14:06:40;1.35;;;0.90;;
38591;SDS011;24356;48.460;11.450;2022-10-16T14:09:08;1.00;;;0.60;;
38591;SDS011;24356;48.460;11.450;2022-10-16T14:11:42;2.45;;;0.85;;
38591;SDS011;24356;48.460;11.450;2022-10-16T14:14:27;0.80;;;0.80;;
38591;SDS011;24356;48.460;11.450;2022-10-16T14:17:05;1.50;;;0.80;;
38591;SDS011;24356;48.460;11.450;2022-10-16T14:19:31;2.05;;;0.80;;
38591;SDS011;24356;48.460;11.450;2022-10-16T14:21:57;0.65;;;0.60;;
38591;SDS011;24356;48.460;11.450;2022-10-16T14:24:31;1.20;;;0.60;;
38591;SDS011;24356;48.460;11.450;2022-10-16T14:26:59;1.80;;;0.70;;
38591;SDS011;24356;48.460;11.450;2022-10-16T14:29:26;1.35;;;0.68;;
38591;SDS011;24356;48.460;11.450;2022-10-16T14:32:05;1.42;;;0.80;;
38591;SDS011;24356;48.460;11.450;2022-10-16T14:34:52;1.52;;;0.60;;
38591;SDS011;24356;48.460;11.450;2022-10-16T14:37:25;4.22;;;1.05;;
38591;SDS011;24356;48.460;11.450;2022-10-16T14:39:53;3.90;;;0.88;;
38591;SDS011;24356;48.460;11.450;2022-10-16T14:42:21;1.05;;;0.80;;
38591;SDS011;24356;48.460;11.450;2022-10-16T14:44:50;2.88;;;0.90;;
38591;SDS011;24356;48.460;11.450;2022-10-16T14:47:20;0.95;;;0.88;;
38591;SDS011;24356;48.460;11.450;2022-10-16T14:49:52;3.20;;;0.80;;
38591;SDS011;24356;48.460;11.450;2022-10-16T14:52:23;3.10;;;0.77;;
38591;SDS011;24356;48.460;11.450;2022-10-16T14:54:49;2.05;;;0.90;;
38591;SDS011;24356;48.460;11.450;2022-10-16T14:57:16;2.58;;;1.02;;
38591;SDS011;24356;48.460;11.450;2022-10-16T14:59:46;3.53;;;1.05;;
38591;SDS011;24356;48.460;11.450;2022-10-16T15:04:51;13.50;;;2.60;;
38591;SDS011;24356;48.460;11.450;2022-10-16T15:07:17;13.90;;;2.58;;
38591;SDS011;24356;48.460;11.450;2022-10-16T15:09:43;7.90;;;2.42;;
38591;SDS011;24356;48.460;11.450;2022-10-16T15:12:09;19.90;;;5.28;;
38591;SDS011;24356;48.460;11.450;2022-10-16T15:14:35;14.13;;;4.95;;
38591;SDS011;24356;48.460;11.450;2022-10-16T15:17:00;22.88;;;4.93;;
38591;SDS011;24356;48.460;11.450;2022-10-16T15:19:26;21.40;;;5.35;;
38591;SDS011;24356;48.460;11.450;2022-10-16T15:21:52;15.68;;;4.63;;
38591;SDS011;24356;48.460;11.450;2022-10-16T15:24:19;14.18;;;4.88;;
38591;SDS011;24356;48.460;11.450;2022-10-16T15:26:45;12.90;;;3.25;;
38591;SDS011;24356;48.460;11.450;2022-10-16T15:29:14;12.02;;;3.63;;
38591;SDS011;24356;48.460;11.450;2022-10-16T15:31:40;7.50;;;1.85;;
38591;SDS011;24356;48.460;11.450;2022-10-16T15:34:08;8.45;;;1.88;;
38591;SDS011;24356;48.460;11.450;2022-10-16T15:36:35;5.07;;;1.35;;
38591;SDS011;24356;48.460;11.450;2022-10-16T15:39:23;6.43;;;1.27;;
38591;SDS011;24356;48.460;11.450;2022-10-16T15:41:48;4.57;;;1.08;;
38591;SDS011;24356;48.460;11.450;2022-10-16T15:44:18;7.10;;;0.95;;
38591;SDS011;24356;48.460;11.450;2022-10-16T15:46:45;2.45;;;1.10;;
38591;SDS011;24356;48.460;11.450;2022-10-16T15:49:11;2.72;;;1.10;;
38591;SDS011;24356;48.460;11.450;2022-10-16T15:51:37;3.17;;;1.48;;
38591;SDS011;24356;48.460;11.450;2022-10-16T15:54:03;2.55;;;1.20;;
38591;SDS011;24356;48.460;11.450;2022-10-16T15:56:29;5.57;;;1.30;;
38591;SDS011;24356;48.460;11.450;2022-10-16T15:58:58;6.05;;;1.20;;
38591;SDS011;24356;48.460;11.450;2022-10-16T16:01:24;2.88;;;1.10;;
38591;SDS011;24356;48.460;11.450;2022-10-16T16:03:54;3.90;;;1.20;;
38591;SDS011;24356;48.460;11.450;2022-10-16T16:06:20;2.53;;;1.20;;
38591;SDS011;24356;48.460;11.450;2022-10-16T16:08:48;2.72;;;0.93;;
38591;SDS011;24356;48.460;11.450;2022-10-16T16:11:15;5.05;;;1.25;;
38591;SDS011;24356;48.460;11.450;2022-10-16T16:13:42;4.32;;;1.40;;
38591;SDS011;24356;48.460;11.450;2022-10-16T16:16:08;2.88;;;1.35;;
38591;SDS011;24356;48.460;11.450;2022-10-16T16:18:40;4.90;;;1.42;;
38591;SDS011;24356;48.460;11.450;2022-10-16T16:21:08;10.02;;;1.95;;
38591;SDS011;24356;48.460;11.450;2022-10-16T16:23:35;3.90;;;1.50;;
38591;SDS011;24356;48.460;11.450;2022-10-16T16:26:02;4.45;;;1.35;;
38591;SDS011;24356;48.460;11.450;2022-10-16T16:28:27;4.68;;;1.40;;
38591;SDS011;24356;48.460;11.450;2022-10-16T16:30:53;9.02;;;1.80;;
38591;SDS011;24356;48.460;11.450;2022-10-16T16:33:20;6.75;;;1.70;;
38591;SDS011;24356;48.460;11.450;2022-10-16T16:35:45;3.92;;;1.85;;
38591;SDS011;24356;48.460;11.450;2022-10-16T16:38:11;4.10;;;1.85;;
38591;SDS011;24356;48.460;11.450;2022-10-16T16:40:37;9.75;;;2.10;;
38591;SDS011;24356;48.460;11.450;2022-10-16T16:43:02;8.35;;;2.25;;